Metar z pełnej godziny Komunikat METAR ze strony awiacja.imgw.pl Metar G00 EPRZ METAR EPRZ 172100Z VRB01KT 7000 NSC 07/05 Q1021 =